createdAt,value
2018-02-14T00:00:02.862Z,3.4
2018-02-14T00:15:03.128Z,3.4
2018-02-14T00:30:02.499Z,3.4
2018-02-14T00:45:02.799Z,3.4
2018-02-14T01:00:03.048Z,3.3
2018-02-14T01:15:02.341Z,3.2
2018-02-14T01:30:02.703Z,3.2
2018-02-14T01:45:02.931Z,3.2
2018-02-14T02:00:03.209Z,3.2
2018-02-14T02:15:02.472Z,3.1
2018-02-14T02:30:02.824Z,3.1
2018-02-14T02:45:03.105Z,3.1
2018-02-14T03:00:02.410Z,3.1
2018-02-14T03:15:02.650Z,3
2018-02-14T03:30:02.998Z,3
2018-02-14T03:45:02.308Z,2.9
2018-02-14T04:00:02.511Z,2.9
2018-02-14T04:15:02.840Z,2.9
2018-02-14T04:30:03.166Z,2.9
2018-02-14T04:45:02.424Z,2.8
2018-02-14T05:00:02.708Z,2.8
2018-02-14T05:15:02.937Z,2.8
2018-02-14T05:30:02.325Z,2.8
2018-02-14T05:45:02.608Z,2.7
2018-02-14T06:00:02.820Z,2.7
2018-02-14T06:15:03.137Z,2.6
2018-02-14T06:30:02.541Z,2.6
2018-02-14T06:45:02.813Z,2.6
2018-02-14T07:00:03.050Z,2.6
2018-02-14T07:15:02.404Z,2.6
2018-02-14T07:30:02.730Z,2.6
2018-02-14T07:45:02.943Z,2.6
2018-02-14T08:00:03.148Z,2.5
2018-02-14T08:15:02.419Z,2.5
2018-02-14T08:30:02.728Z,2.5
2018-02-14T08:45:02.925Z,2.5
2018-02-14T09:00:03.257Z,2.5
2018-02-14T09:15:02.300Z,2.5
2018-02-14T09:30:02.608Z,2.6
2018-02-14T09:45:02.840Z,2.6
2018-02-14T10:00:03.249Z,2.6
2018-02-14T10:15:02.561Z,2.6
2018-02-14T10:30:02.924Z,2.6
2018-02-14T10:45:03.218Z,2.6
2018-02-14T11:00:02.433Z,2.6
2018-02-14T11:15:02.716Z,2.7
2018-02-14T11:30:03.036Z,2.7
2018-02-14T11:45:02.331Z,2.8
2018-02-14T12:00:02.601Z,2.8
2018-02-14T12:15:02.829Z,2.9
2018-02-14T12:30:03.212Z,2.9
2018-02-14T12:45:02.420Z,2.9
2018-02-14T13:00:02.698Z,2.9
2018-02-14T13:15:02.919Z,2.9
2018-02-14T13:30:02.204Z,2.9
2018-02-14T13:45:02.466Z,2.9
2018-02-14T14:00:02.741Z,2.9
2018-02-14T14:15:02.994Z,2.9
2018-02-14T14:30:02.323Z,2.9
2018-02-14T14:45:02.639Z,2.9
2018-02-14T15:00:02.869Z,3
2018-02-14T15:15:03.148Z,3
2018-02-14T15:30:02.511Z,3
2018-02-14T15:45:02.788Z,3
2018-02-14T16:00:03.028Z,3
2018-02-14T16:15:02.275Z,3
2018-02-14T16:30:02.594Z,3
2018-02-14T16:45:02.858Z,3
2018-02-14T17:00:03.149Z,2.9
2018-02-14T17:15:02.386Z,3
2018-02-14T17:30:02.791Z,2.9
2018-02-14T17:45:03.064Z,2.9
2018-02-14T18:00:02.319Z,2.9
2018-02-14T18:15:02.589Z,2.9
2018-02-14T18:30:02.934Z,2.9
2018-02-14T18:45:03.277Z,2.9
2018-02-14T19:00:02.573Z,2.9
2018-02-14T19:15:02.818Z,2.9
2018-02-14T19:30:03.125Z,2.9
2018-02-14T19:45:02.382Z,2.9
2018-02-14T20:00:02.670Z,2.9
2018-02-14T20:15:02.903Z,2.9
2018-02-14T20:30:02.217Z,2.9
2018-02-14T20:45:02.488Z,2.9
2018-02-14T21:00:02.718Z,2.9
2018-02-14T21:15:02.991Z,2.9
2018-02-14T21:30:02.305Z,2.9
2018-02-14T21:45:02.593Z,2.9
2018-02-14T22:00:02.833Z,2.9
2018-02-14T22:15:03.116Z,2.9
2018-02-14T22:30:02.435Z,2.9
2018-02-14T22:45:02.687Z,2.9
2018-02-14T23:00:02.918Z,2.9
2018-02-14T23:15:03.161Z,2.9
2018-02-14T23:30:02.565Z,2.9
2018-02-14T23:45:02.816Z,2.9
